createdAt,value
2023-02-27T00:00:14.626Z,102442.47
2023-02-27T00:02:42.179Z,102438.97
2023-02-27T00:05:09.615Z,102434.63
2023-02-27T00:07:36.392Z,102436.47
2023-02-27T00:10:03.330Z,102436.50
2023-02-27T00:12:31.365Z,102436.53
2023-02-27T00:14:57.913Z,102439.25
2023-02-27T00:17:24.516Z,102435.81
2023-02-27T00:19:51.105Z,102433.22
2023-02-27T00:22:17.704Z,102432.41
2023-02-27T00:24:44.401Z,102437.78
2023-02-27T00:27:10.969Z,102436.91
2023-02-27T00:29:39.160Z,102436.94
2023-02-27T00:32:05.961Z,102434.38
2023-02-27T00:34:32.545Z,102428.25
2023-02-27T00:36:59.222Z,102424.72
2023-02-27T00:39:25.860Z,102430.06
2023-02-27T00:41:52.373Z,102423.00
2023-02-27T00:44:18.947Z,102430.94
2023-02-27T00:46:46.949Z,102423.06
2023-02-27T00:49:13.543Z,102423.06
2023-02-27T00:51:40.266Z,102428.41
2023-02-27T00:54:06.807Z,102431.13
2023-02-27T00:56:33.366Z,102430.25
2023-02-27T00:58:59.917Z,102427.63
2023-02-27T01:01:26.848Z,102425.06
2023-02-27T01:03:54.965Z,102421.59
2023-02-27T01:06:21.567Z,102422.50
2023-02-27T01:08:48.132Z,102413.72
2023-02-27T01:11:14.820Z,102409.41
2023-02-27T01:13:41.368Z,102411.19
2023-02-27T01:16:07.976Z,102415.69
2023-02-27T01:18:34.552Z,102407.78
2023-02-27T01:21:02.619Z,102409.53
2023-02-27T01:23:29.390Z,102414.91
2023-02-27T01:25:56.140Z,102419.34
2023-02-27T01:28:22.730Z,102410.56
2023-02-27T01:30:49.313Z,102409.72
2023-02-27T01:33:16.063Z,102414.16
2023-02-27T01:35:45.506Z,102407.16
2023-02-27T01:38:13.644Z,102409.81
2023-02-27T01:40:42.196Z,102410.78
2023-02-27T01:43:14.859Z,102412.56
2023-02-27T01:45:42.445Z,102412.63
2023-02-27T01:48:14.124Z,102409.13
2023-02-27T01:50:46.406Z,102410.97
2023-02-27T01:53:15.102Z,102408.31
2023-02-27T01:55:43.322Z,102410.16
2023-02-27T01:58:12.425Z,102408.41
2023-02-27T02:00:39.422Z,102410.16
2023-02-27T02:03:14.020Z,102413.78
2023-02-27T02:05:41.296Z,102412.03
2023-02-27T02:08:08.497Z,102413.88
2023-02-27T02:10:36.721Z,102418.38
2023-02-27T02:13:03.582Z,102419.28
2023-02-27T02:15:37.307Z,102421.06
2023-02-27T02:18:17.672Z,102416.69
2023-02-27T02:21:11.017Z,102418.47
2023-02-27T02:24:22.201Z,102419.44
2023-02-27T02:27:00.764Z,102417.69
2023-02-27T02:30:16.678Z,102420.38
2023-02-27T02:33:12.423Z,102418.63
2023-02-27T02:36:05.338Z,102423.91
2023-02-27T02:38:56.517Z,102423.91
2023-02-27T02:41:28.935Z,102424.81
2023-02-27T02:44:04.775Z,102423.94
2023-02-27T02:46:40.193Z,102419.53
2023-02-27T02:49:18.057Z,102413.34
2023-02-27T02:51:50.860Z,102411.63
2023-02-27T02:54:26.325Z,102421.38
2023-02-27T02:57:00.155Z,102422.25
2023-02-27T02:59:32.247Z,102416.97
2023-02-27T03:02:02.589Z,102418.78
2023-02-27T03:04:36.520Z,102428.50
2023-02-27T03:07:16.501Z,102428.53
2023-02-27T03:09:48.078Z,102434.72
2023-02-27T03:12:20.455Z,102430.38
2023-02-27T03:14:52.967Z,102432.13
2023-02-27T03:17:37.486Z,102438.31
2023-02-27T03:20:08.265Z,102445.38
2023-02-27T03:22:38.444Z,102446.25
2023-02-27T03:25:09.112Z,102449.84
2023-02-27T03:27:39.331Z,102451.69
2023-02-27T03:30:10.664Z,102453.47
2023-02-27T03:32:42.372Z,102451.69
2023-02-27T03:35:10.975Z,102450.81
2023-02-27T03:37:50.436Z,102450.81
2023-02-27T03:40:26.184Z,102449.06
2023-02-27T03:42:59.946Z,102456.16
2023-02-27T03:45:33.775Z,102458.84
2023-02-27T03:48:00.917Z,102467.66
2023-02-27T03:50:27.624Z,102471.19
2023-02-27T03:52:54.552Z,102475.53
2023-02-27T03:55:27.904Z,102475.53
2023-02-27T03:57:54.580Z,102469.34
2023-02-27T04:00:23.435Z,102478.19
2023-02-27T04:02:51.873Z,102480.00
2023-02-27T04:05:19.125Z,102484.44
2023-02-27T04:07:57.121Z,102488.91
2023-02-27T04:10:52.535Z,102488.97
2023-02-27T04:13:43.033Z,102496.94
2023-02-27T04:16:43.175Z,102489.88
2023-02-27T04:19:25.078Z,102496.94
2023-02-27T04:22:02.415Z,102502.28
2023-02-27T04:24:37.937Z,102504.06
2023-02-27T04:27:16.280Z,102507.66
2023-02-27T04:29:54.046Z,102507.66
2023-02-27T04:32:28.378Z,102505.94
2023-02-27T04:34:59.673Z,102502.41
2023-02-27T04:37:30.239Z,102507.72
2023-02-27T04:40:01.357Z,102509.47
2023-02-27T04:42:33.909Z,102505.97
2023-02-27T04:45:04.506Z,102510.44
2023-02-27T04:47:36.527Z,102513.06
2023-02-27T04:50:09.674Z,102519.25
2023-02-27T04:52:39.064Z,102521.91
2023-02-27T04:55:11.279Z,102514.84
2023-02-27T04:57:44.376Z,102514.84
2023-02-27T05:00:12.554Z,102521.03
2023-02-27T05:02:44.138Z,102514.84
2023-02-27T05:05:15.903Z,102514.88
2023-02-27T05:07:47.842Z,102513.16
2023-02-27T05:10:21.919Z,102514.97
2023-02-27T05:12:53.174Z,102507.13
2023-02-27T05:15:25.761Z,102515.09
2023-02-27T05:17:59.924Z,102514.25
2023-02-27T05:20:32.866Z,102501.06
2023-02-27T05:23:08.135Z,102517.84
2023-02-27T05:25:41.128Z,102516.97
2023-02-27T05:28:16.295Z,102516.97
2023-02-27T05:30:51.803Z,102517.03
2023-02-27T05:33:26.221Z,102523.19
2023-02-27T05:35:59.663Z,102537.34
2023-02-27T05:38:31.648Z,102538.19
2023-02-27T05:41:03.407Z,102535.53
2023-02-27T05:43:36.813Z,102539.94
2023-02-27T05:46:08.553Z,102547.00
2023-02-27T05:48:38.387Z,102545.22
2023-02-27T05:51:08.207Z,102546.09
2023-02-27T05:53:41.358Z,102541.72
2023-02-27T05:56:08.288Z,102550.56
2023-02-27T05:58:40.666Z,102548.78
2023-02-27T06:01:10.317Z,102557.56
2023-02-27T06:03:39.136Z,102563.78
2023-02-27T06:06:08.232Z,102577.03
2023-02-27T06:08:35.079Z,102572.63
2023-02-27T06:11:01.759Z,102573.50
2023-02-27T06:13:28.480Z,102572.59
2023-02-27T06:15:56.635Z,102589.31
2023-02-27T06:18:23.169Z,102579.59
2023-02-27T06:20:50.685Z,102591.03
2023-02-27T06:23:17.571Z,102586.66
2023-02-27T06:25:44.248Z,102585.72
2023-02-27T06:28:11.298Z,102577.78
2023-02-27T06:30:38.821Z,102580.44
2023-02-27T06:33:07.072Z,102583.06
2023-02-27T06:35:34.547Z,102591.00
2023-02-27T06:38:01.167Z,102592.75
2023-02-27T06:40:27.752Z,102589.19
2023-02-27T06:42:54.380Z,102579.50
2023-02-27T06:45:21.181Z,102594.47
2023-02-27T06:47:47.960Z,102596.19
2023-02-27T06:50:16.112Z,102601.41
2023-02-27T06:52:42.788Z,102595.19
2023-02-27T06:55:10.681Z,102603.13
2023-02-27T06:57:37.342Z,102605.75
2023-02-27T07:00:05.138Z,102613.69
2023-02-27T07:02:31.675Z,102603.06
2023-02-27T07:04:58.343Z,102608.34
2023-02-27T07:07:33.294Z,102607.41
2023-02-27T07:10:03.306Z,102596.81
2023-02-27T07:12:29.889Z,102605.56
2023-02-27T07:14:56.444Z,102618.78
2023-02-27T07:17:23.010Z,102616.09
2023-02-27T07:19:49.572Z,102631.03
2023-02-27T07:22:16.155Z,102631.84
2023-02-27T07:24:44.131Z,102640.59
2023-02-27T07:27:10.647Z,102640.47
2023-02-27T07:29:37.216Z,102642.09
2023-02-27T07:32:03.859Z,102641.00
2023-02-27T07:34:30.551Z,102630.22
2023-02-27T07:36:57.208Z,102643.28
2023-02-27T07:39:23.816Z,102646.69
2023-02-27T07:41:52.086Z,102640.34
2023-02-27T07:44:18.821Z,102648.16
2023-02-27T07:46:45.389Z,102649.78
2023-02-27T07:49:12.065Z,102647.91
2023-02-27T07:51:38.728Z,102647.69
2023-02-27T07:54:05.514Z,102649.28
2023-02-27T07:56:32.109Z,102649.91
2023-02-27T07:59:00.133Z,102658.59
2023-02-27T08:01:26.817Z,102656.69
2023-02-27T08:03:53.432Z,102658.28
2023-02-27T08:06:19.980Z,102660.72
2023-02-27T08:08:46.590Z,102650.00
2023-02-27T08:11:13.144Z,102653.44
2023-02-27T08:13:59.488Z,102655.91
2023-02-27T08:16:28.906Z,102654.75
2023-02-27T08:18:55.705Z,102651.88
2023-02-27T08:21:22.775Z,102660.63
2023-02-27T08:23:49.375Z,102655.19
2023-02-27T08:26:16.062Z,102654.94
2023-02-27T08:28:42.732Z,102660.03
2023-02-27T08:31:09.366Z,102668.69
2023-02-27T08:33:37.717Z,102667.59
2023-02-27T08:36:05.219Z,102661.25
2023-02-27T08:38:31.873Z,102673.53
2023-02-27T08:40:58.408Z,102676.91
2023-02-27T08:43:25.188Z,102662.50
2023-02-27T08:45:53.015Z,102679.13
2023-02-27T08:48:19.923Z,102670.91
2023-02-27T08:50:47.865Z,102666.25
2023-02-27T08:53:14.609Z,102668.69
2023-02-27T08:55:41.226Z,102670.22
2023-02-27T08:58:08.144Z,102665.56
2023-02-27T09:00:34.715Z,102669.75
2023-02-27T09:03:01.422Z,102662.41
2023-02-27T09:05:28.323Z,102666.66
2023-02-27T09:07:56.350Z,102679.78
2023-02-27T09:10:23.020Z,102664.44
2023-02-27T09:12:49.525Z,102665.94
2023-02-27T09:15:16.640Z,102665.69
2023-02-27T09:17:43.233Z,102669.00
2023-02-27T09:20:11.357Z,102666.06
2023-02-27T09:22:38.517Z,102663.00
2023-02-27T09:25:07.403Z,102666.22
2023-02-27T09:27:34.273Z,102662.41
2023-02-27T09:30:02.162Z,102664.81
2023-02-27T09:32:28.891Z,102664.53
2023-02-27T09:34:55.547Z,102673.06
2023-02-27T09:37:22.112Z,102678.06
2023-02-27T09:39:48.634Z,102683.94
2023-02-27T09:42:19.718Z,102688.13
2023-02-27T09:44:48.698Z,102691.47
2023-02-27T09:47:21.222Z,102691.31
2023-02-27T09:50:02.187Z,102692.84
2023-02-27T09:52:32.373Z,102685.44
2023-02-27T09:54:59.186Z,102685.88
2023-02-27T09:57:39.068Z,102684.66
2023-02-27T10:00:15.623Z,102683.31
2023-02-27T10:02:52.720Z,102691.84
2023-02-27T10:05:28.531Z,102678.00
2023-02-27T10:08:06.779Z,102675.78
2023-02-27T10:10:39.439Z,102683.47
2023-02-27T10:13:30.433Z,102668.00
2023-02-27T10:16:01.938Z,102678.25
2023-02-27T10:18:31.498Z,102680.44
2023-02-27T10:21:00.894Z,102682.56
2023-02-27T10:23:34.761Z,102685.63
2023-02-27T10:26:02.821Z,102692.22
2023-02-27T10:28:31.899Z,102687.28
2023-02-27T10:31:00.198Z,102684.22
2023-02-27T10:33:32.139Z,102684.72
2023-02-27T10:36:00.737Z,102682.72
2023-02-27T10:38:34.296Z,102685.06
2023-02-27T10:41:02.181Z,102692.16
2023-02-27T10:43:29.657Z,102682.19
2023-02-27T10:46:01.540Z,102679.06
2023-02-27T10:48:28.275Z,102686.41
2023-02-27T10:51:22.577Z,102693.03
2023-02-27T10:53:49.520Z,102688.97
2023-02-27T10:56:22.595Z,102686.66
2023-02-27T10:59:02.540Z,102684.28
2023-02-27T11:01:42.538Z,102693.50
2023-02-27T11:04:10.507Z,102692.50
2023-02-27T11:06:37.086Z,102693.44
2023-02-27T11:09:20.218Z,102685.41
2023-02-27T11:11:47.029Z,102692.34
2023-02-27T11:14:25.946Z,102691.06
2023-02-27T11:16:55.728Z,102691.78
2023-02-27T11:19:31.127Z,102693.59
2023-02-27T11:22:03.713Z,102685.25
2023-02-27T11:24:30.358Z,102692.44
2023-02-27T11:26:59.395Z,102690.97
2023-02-27T11:29:27.710Z,102679.06
2023-02-27T11:31:58.464Z,102682.00
2023-02-27T11:34:29.814Z,102678.88
2023-02-27T11:36:59.720Z,102679.38
2023-02-27T11:39:30.366Z,102674.44
2023-02-27T11:41:59.088Z,102672.00
2023-02-27T11:44:38.686Z,102668.34
2023-02-27T11:47:23.307Z,102662.97
2023-02-27T11:50:21.069Z,102675.78
2023-02-27T11:52:50.678Z,102670.56
2023-02-27T11:55:19.675Z,102661.88
2023-02-27T11:57:50.018Z,102664.69
2023-02-27T12:00:20.762Z,102659.94
2023-02-27T12:02:58.638Z,102655.63
2023-02-27T12:05:29.533Z,102654.34
2023-02-27T12:07:59.274Z,102670.78
2023-02-27T12:10:28.597Z,102656.38
2023-02-27T12:13:00.746Z,102654.69
2023-02-27T12:15:32.091Z,102657.50
2023-02-27T12:18:16.637Z,102646.69
2023-02-27T12:20:52.235Z,102640.00
2023-02-27T12:23:26.582Z,102639.31
2023-02-27T12:26:01.462Z,102651.44
2023-02-27T12:28:35.259Z,102656.88
2023-02-27T12:31:16.839Z,102654.47
2023-02-27T12:33:53.284Z,102656.31
2023-02-27T12:36:19.915Z,102659.47
2023-02-27T12:38:46.765Z,102660.66
2023-02-27T12:41:32.620Z,102653.81
2023-02-27T12:44:13.560Z,102656.16
2023-02-27T12:46:51.131Z,102651.13
2023-02-27T12:49:34.592Z,102656.34
2023-02-27T12:52:12.266Z,102651.59
2023-02-27T12:54:46.938Z,102656.97
2023-02-27T12:57:31.753Z,102661.06
2023-02-27T13:00:08.838Z,102651.59
2023-02-27T13:02:46.903Z,102651.03
2023-02-27T13:05:28.033Z,102654.13
2023-02-27T13:08:03.621Z,102655.47
2023-02-27T13:10:34.622Z,102672.03
2023-02-27T13:13:08.753Z,102665.44
2023-02-27T13:15:40.891Z,102666.56
2023-02-27T13:18:16.553Z,102671.03
2023-02-27T13:20:52.020Z,102667.44
2023-02-27T13:23:26.020Z,102666.44
2023-02-27T13:25:55.138Z,102667.44
2023-02-27T13:28:25.511Z,102655.94
2023-02-27T13:31:02.251Z,102653.25
2023-02-27T13:33:34.415Z,102650.34
2023-02-27T13:36:10.236Z,102648.25
2023-02-27T13:38:44.647Z,102650.72
2023-02-27T13:41:47.708Z,102657.03
2023-02-27T13:44:47.471Z,102664.84
2023-02-27T13:47:47.221Z,102662.16
2023-02-27T13:50:48.615Z,102658.19
2023-02-27T13:53:19.156Z,102658.19
2023-02-27T13:55:46.129Z,102659.28
2023-02-27T13:58:19.705Z,102665.75
2023-02-27T14:01:03.290Z,102658.72
2023-02-27T14:03:30.765Z,102660.59
2023-02-27T14:06:01.867Z,102664.22
2023-02-27T14:08:35.565Z,102662.50
2023-02-27T14:11:15.267Z,102657.13
2023-02-27T14:14:06.899Z,102662.50
2023-02-27T14:16:56.723Z,102657.25
2023-02-27T14:19:51.679Z,102668.09
2023-02-27T14:23:09.175Z,102668.31
2023-02-27T14:25:39.115Z,102657.75
2023-02-27T14:28:16.344Z,102664.06
2023-02-27T14:30:45.643Z,102671.41
2023-02-27T14:33:24.091Z,102677.75
2023-02-27T14:36:02.247Z,102679.56
2023-02-27T14:38:29.429Z,102673.44
2023-02-27T14:41:08.811Z,102673.56
2023-02-27T14:43:39.139Z,102679.03
2023-02-27T14:46:11.670Z,102672.78
2023-02-27T14:48:39.180Z,102675.47
2023-02-27T14:51:06.318Z,102678.16
2023-02-27T14:53:32.916Z,102682.78
2023-02-27T14:55:59.987Z,102686.63
2023-02-27T14:58:28.327Z,102689.47
2023-02-27T15:01:05.973Z,102685.97
2023-02-27T15:03:38.119Z,102691.50
2023-02-27T15:06:14.374Z,102696.94
2023-02-27T15:08:45.151Z,102695.28
2023-02-27T15:11:15.128Z,102697.22
2023-02-27T15:13:44.764Z,102702.72
2023-02-27T15:16:37.044Z,102703.91
2023-02-27T15:19:12.737Z,102703.22
2023-02-27T15:21:42.610Z,102709.53
2023-02-27T15:24:21.467Z,102704.31
2023-02-27T15:26:53.193Z,102706.25
2023-02-27T15:29:23.814Z,102709.91
2023-02-27T15:31:50.816Z,102703.66
2023-02-27T15:34:17.917Z,102701.09
2023-02-27T15:36:48.353Z,102705.66
2023-02-27T15:39:17.650Z,102704.00
2023-02-27T15:41:46.614Z,102717.41
2023-02-27T15:44:13.972Z,102711.31
2023-02-27T15:46:42.726Z,102715.88
2023-02-27T15:49:19.396Z,102720.44
2023-02-27T15:51:55.267Z,102708.75
2023-02-27T15:54:23.305Z,102715.88
2023-02-27T15:56:51.182Z,102716.03
2023-02-27T15:59:19.161Z,102717.06
2023-02-27T16:01:48.392Z,102720.72
2023-02-27T16:04:20.752Z,102718.16
2023-02-27T16:06:51.384Z,102723.66
2023-02-27T16:09:23.025Z,102729.94
2023-02-27T16:11:50.004Z,102726.50
2023-02-27T16:14:39.320Z,102731.84
2023-02-27T16:20:02.439Z,102734.88
2023-02-27T16:22:29.259Z,102733.19
2023-02-27T16:25:08.790Z,102741.38
2023-02-27T16:27:35.549Z,102741.47
2023-02-27T16:30:09.243Z,102738.88
2023-02-27T16:32:39.758Z,102743.38
2023-02-27T16:35:15.588Z,102739.88
2023-02-27T16:37:43.335Z,102740.94
2023-02-27T16:40:14.330Z,102745.50
2023-02-27T16:42:41.170Z,102746.50
2023-02-27T16:45:13.573Z,102748.44
2023-02-27T16:47:40.246Z,102745.91
2023-02-27T16:50:16.069Z,102753.13
2023-02-27T16:52:42.808Z,102751.44
2023-02-27T16:55:09.729Z,102750.63
2023-02-27T16:57:36.407Z,102753.44
2023-02-27T17:00:04.371Z,102758.94
2023-02-27T17:02:30.900Z,102751.88
2023-02-27T17:04:57.618Z,102754.69
2023-02-27T17:07:25.598Z,102753.97
2023-02-27T17:09:52.256Z,102747.88
2023-02-27T17:12:18.819Z,102754.28
2023-02-27T17:14:45.514Z,102757.19
2023-02-27T17:17:12.327Z,102752.09
2023-02-27T17:19:39.304Z,102759.31
2023-02-27T17:22:06.381Z,102754.09
2023-02-27T17:24:34.380Z,102755.94
2023-02-27T17:27:00.994Z,102751.66
2023-02-27T17:29:27.746Z,102752.72
2023-02-27T17:31:54.430Z,102757.38
2023-02-27T17:34:21.079Z,102756.69
2023-02-27T17:36:48.940Z,102763.03
2023-02-27T17:39:16.013Z,102767.66
2023-02-27T17:41:44.748Z,102765.16
2023-02-27T17:44:11.826Z,102765.38
2023-02-27T17:46:39.013Z,102776.19
2023-02-27T17:49:05.784Z,102773.81
2023-02-27T17:51:33.374Z,102772.28
2023-02-27T17:54:02.191Z,102773.28
2023-02-27T17:56:29.189Z,102782.38
2023-02-27T17:58:57.797Z,102782.47
2023-02-27T18:01:24.920Z,102776.34
2023-02-27T18:03:52.436Z,102776.47
2023-02-27T18:06:19.215Z,102778.44
2023-02-27T18:08:45.847Z,102771.47
2023-02-27T18:11:14.685Z,102773.38
2023-02-27T18:13:41.639Z,102772.69
2023-02-27T18:16:10.506Z,102768.34
2023-02-27T18:18:37.983Z,102776.56
2023-02-27T18:21:07.101Z,102774.84
2023-02-27T18:23:33.789Z,102780.41
2023-02-27T18:26:00.485Z,102775.13
2023-02-27T18:28:27.466Z,102777.09
2023-02-27T18:30:54.218Z,102776.41
2023-02-27T18:33:22.465Z,102781.03
2023-02-27T18:35:49.766Z,102787.34
2023-02-27T18:38:16.509Z,102782.94
2023-02-27T18:40:43.063Z,102788.34
2023-02-27T18:43:10.283Z,102790.25
2023-02-27T18:45:37.234Z,102789.41
2023-02-27T18:48:04.169Z,102791.31
2023-02-27T18:50:32.211Z,102791.44
2023-02-27T18:52:58.864Z,102794.28
2023-02-27T18:55:25.911Z,102793.50
2023-02-27T18:57:52.581Z,102784.75
2023-02-27T19:00:20.214Z,102797.28
2023-02-27T19:02:46.908Z,102800.06
2023-02-27T19:05:13.626Z,102792.16
2023-02-27T19:07:41.755Z,102807.38
2023-02-27T19:10:10.048Z,102807.47
2023-02-27T19:12:36.922Z,102809.44
2023-02-27T19:15:03.937Z,102808.66
2023-02-27T19:17:30.597Z,102803.56
2023-02-27T19:19:57.195Z,102801.94
2023-02-27T19:22:23.775Z,102806.50
2023-02-27T19:24:51.820Z,102817.25
2023-02-27T19:27:18.449Z,102814.69
2023-02-27T19:29:45.026Z,102813.03
2023-02-27T19:32:11.811Z,102815.81
2023-02-27T19:34:38.634Z,102819.44
2023-02-27T19:37:05.503Z,102817.81
2023-02-27T19:39:32.054Z,102817.09
2023-02-27T19:42:00.035Z,102824.34
2023-02-27T19:44:26.637Z,102824.50
2023-02-27T19:46:53.772Z,102832.66
2023-02-27T19:49:20.676Z,102823.91
2023-02-27T19:51:47.326Z,102833.81
2023-02-27T19:54:15.252Z,102833.00
2023-02-27T19:56:42.734Z,102838.47
2023-02-27T19:59:11.833Z,102829.66
2023-02-27T20:01:39.019Z,102830.59
2023-02-27T20:04:06.683Z,102823.50
2023-02-27T20:06:35.664Z,102829.81
2023-02-27T20:09:02.328Z,102829.88
2023-02-27T20:11:29.834Z,102829.97
2023-02-27T20:13:56.682Z,102824.69
2023-02-27T20:16:24.700Z,102829.19
2023-02-27T20:18:51.413Z,102822.19
2023-02-27T20:21:20.504Z,102833.81
2023-02-27T20:23:48.236Z,102831.25
2023-02-27T20:26:17.049Z,102834.00
2023-02-27T20:28:44.039Z,102827.78
2023-02-27T20:31:11.814Z,102834.94
2023-02-27T20:33:39.901Z,102843.84
2023-02-27T20:36:08.396Z,102843.94
2023-02-27T20:38:36.488Z,102841.28
2023-02-27T20:41:03.143Z,102838.78
2023-02-27T20:43:29.790Z,102834.41
2023-02-27T20:45:56.634Z,102837.06
2023-02-27T20:48:23.370Z,102834.44
2023-02-27T20:50:51.376Z,102833.63
2023-02-27T20:53:18.295Z,102838.19
2023-02-27T20:55:48.457Z,102838.28
2023-02-27T20:58:15.543Z,102839.22
2023-02-27T21:00:42.330Z,102842.84
2023-02-27T21:03:08.993Z,102841.09
2023-02-27T21:05:35.606Z,102842.94
2023-02-27T21:08:03.756Z,102846.50
2023-02-27T21:10:30.463Z,102851.84
2023-02-27T21:12:57.035Z,102848.31
2023-02-27T21:15:23.586Z,102844.75
2023-02-27T21:17:50.216Z,102845.63
2023-02-27T21:20:17.691Z,102843.06
2023-02-27T21:22:44.279Z,102847.53
2023-02-27T21:25:12.485Z,102846.72
2023-02-27T21:27:39.053Z,102846.72
2023-02-27T21:30:07.181Z,102849.44
2023-02-27T21:32:33.777Z,102844.16
2023-02-27T21:35:00.313Z,102846.81
2023-02-27T21:37:26.992Z,102846.81
2023-02-27T21:39:53.574Z,102845.88
2023-02-27T21:42:21.613Z,102850.38
2023-02-27T21:44:48.167Z,102851.22
2023-02-27T21:47:14.914Z,102846.75
2023-02-27T21:49:41.850Z,102849.41
2023-02-27T21:52:08.624Z,102842.28
2023-02-27T21:54:35.246Z,102852.06
2023-02-27T21:57:01.881Z,102854.72
2023-02-27T21:59:30.270Z,102846.72
2023-02-27T22:01:57.942Z,102843.19
2023-02-27T22:04:24.944Z,102839.63
2023-02-27T22:06:51.971Z,102844.03
2023-02-27T22:09:19.033Z,102846.66
2023-02-27T22:11:45.736Z,102842.16
2023-02-27T22:14:13.045Z,102844.78
2023-02-27T22:16:41.828Z,102850.06
2023-02-27T22:19:10.387Z,102843.84
2023-02-27T22:21:38.121Z,102841.19
2023-02-27T22:24:05.939Z,102849.13
2023-02-27T22:26:32.954Z,102846.41
2023-02-27T22:29:01.257Z,102846.41
2023-02-27T22:31:29.884Z,102849.94
2023-02-27T22:34:00.358Z,102850.75
2023-02-27T22:36:29.499Z,102860.50
2023-02-27T22:38:57.128Z,102854.28
2023-02-27T22:41:26.408Z,102859.59
2023-02-27T22:43:53.288Z,102853.34
2023-02-27T22:46:25.108Z,102864.84
2023-02-27T22:48:54.243Z,102867.47
2023-02-27T22:51:22.590Z,102856.81
2023-02-27T22:53:49.122Z,102853.25
2023-02-27T22:56:16.382Z,102860.34
2023-02-27T22:58:45.029Z,102863.00
2023-02-27T23:01:13.748Z,102859.47
2023-02-27T23:03:41.538Z,102862.06
2023-02-27T23:06:10.324Z,102857.69
2023-02-27T23:08:39.091Z,102861.22
2023-02-27T23:11:06.240Z,102866.53
2023-02-27T23:13:32.823Z,102862.94
2023-02-27T23:15:59.671Z,102869.13
2023-02-27T23:18:26.645Z,102869.13
2023-02-27T23:20:53.635Z,102872.69
2023-02-27T23:23:20.181Z,102877.13
2023-02-27T23:25:48.097Z,102878.00
2023-02-27T23:28:14.714Z,102876.22
2023-02-27T23:30:41.305Z,102880.66
2023-02-27T23:33:07.897Z,102883.31
2023-02-27T23:35:34.523Z,102883.31
2023-02-27T23:38:01.152Z,102884.19
2023-02-27T23:40:28.116Z,102878.91
2023-02-27T23:42:56.165Z,102882.47
2023-02-27T23:45:22.756Z,102881.56
2023-02-27T23:47:49.813Z,102878.91
2023-02-27T23:50:16.865Z,102886.84
2023-02-27T23:52:43.641Z,102881.47
2023-02-27T23:55:10.659Z,102888.56
2023-02-27T23:57:37.195Z,102883.22
